sensor_id;sensor_type;location;lat;lon;timestamp;pressure;altitude;pressure_sealevel;temperature;humidity
69955;BME280;57279;55.912;37.490;2023-05-19T00:01:08;99952.13;;;14.18;72.53
69955;BME280;57279;55.912;37.490;2023-05-19T00:03:35;99955.41;;;14.20;72.27
69955;BME280;57279;55.912;37.490;2023-05-19T00:06:06;99959.47;;;14.13;72.42
69955;BME280;57279;55.912;37.490;2023-05-19T00:08:33;99964.91;;;14.13;72.29
69955;BME280;57279;55.912;37.490;2023-05-19T00:11:00;99964.91;;;14.13;72.29
69955;BME280;57279;55.912;37.490;2023-05-19T00:13:26;99966.78;;;14.12;72.25
69955;BME280;57279;55.912;37.490;2023-05-19T00:15:52;99969.22;;;14.08;72.11
69955;BME280;57279;55.912;37.490;2023-05-19T00:18:18;99973.28;;;14.01;72.54
69955;BME280;57279;55.912;37.490;2023-05-19T00:20:44;99980.91;;;14.04;72.60
69955;BME280;57279;55.912;37.490;2023-05-19T00:23:10;99980.03;;;13.93;72.96
69955;BME280;57279;55.912;37.490;2023-05-19T00:25:36;99984.91;;;13.91;73.95
69955;BME280;57279;55.912;37.490;2023-05-19T00:28:02;99991.44;;;13.85;74.67
69955;BME280;57279;55.912;37.490;2023-05-19T00:30:31;99980.78;;;13.78;75.14
69955;BME280;57279;55.912;37.490;2023-05-19T00:32:57;99992.19;;;13.70;75.71
69955;BME280;57279;55.912;37.490;2023-05-19T00:35:23;99987.28;;;13.67;75.63
69955;BME280;57279;55.912;37.490;2023-05-19T00:37:48;99997.03;;;13.63;75.68
69955;BME280;57279;55.912;37.490;2023-05-19T00:40:15;99999.66;;;13.47;76.10
69955;BME280;57279;55.912;37.490;2023-05-19T00:42:40;99997.41;;;13.34;76.63
69955;BME280;57279;55.912;37.490;2023-05-19T00:45:07;100002.53;;;13.30;76.04
69955;BME280;57279;55.912;37.490;2023-05-19T00:47:33;100004.38;;;13.25;76.75
69955;BME280;57279;55.912;37.490;2023-05-19T00:49:58;100009.78;;;13.20;76.88
69955;BME280;57279;55.912;37.490;2023-05-19T00:52:25;100007.88;;;13.20;76.84
69955;BME280;57279;55.912;37.490;2023-05-19T00:54:52;100012.25;;;13.21;77.17
69955;BME280;57279;55.912;37.490;2023-05-19T00:57:18;100013.06;;;13.22;77.24
69955;BME280;57279;55.912;37.490;2023-05-19T00:59:49;100013.59;;;13.24;76.63
69955;BME280;57279;55.912;37.490;2023-05-19T01:02:15;100012.50;;;13.20;76.80
69955;BME280;57279;55.912;37.490;2023-05-19T01:04:42;100014.88;;;13.11;75.98
69955;BME280;57279;55.912;37.490;2023-05-19T01:07:10;100018.50;;;12.89;74.25
69955;BME280;57279;55.912;37.490;2023-05-19T01:09:37;100019.81;;;12.87;74.22
69955;BME280;57279;55.912;37.490;2023-05-19T01:12:03;100015.69;;;12.74;75.01
69955;BME280;57279;55.912;37.490;2023-05-19T01:14:29;100023.66;;;12.59;73.97
69955;BME280;57279;55.912;37.490;2023-05-19T01:20:08;100033.13;;;12.29;73.91
69955;BME280;57279;55.912;37.490;2023-05-19T01:28:09;100044.34;;;12.16;72.99
69955;BME280;57279;55.912;37.490;2023-05-19T01:30:40;100045.59;;;12.08;72.33
69955;BME280;57279;55.912;37.490;2023-05-19T01:33:08;100053.47;;;12.09;72.63
69955;BME280;57279;55.912;37.490;2023-05-19T01:35:36;100057.44;;;12.02;72.46
69955;BME280;57279;55.912;37.490;2023-05-19T01:38:03;100052.16;;;11.90;71.66
69955;BME280;57279;55.912;37.490;2023-05-19T01:40:32;100061.28;;;11.67;71.37
69955;BME280;57279;55.912;37.490;2023-05-19T01:42:59;100067.69;;;11.61;71.13
69955;BME280;57279;55.912;37.490;2023-05-19T01:45:30;100072.16;;;11.50;71.90
69955;BME280;57279;55.912;37.490;2023-05-19T01:47:59;100067.00;;;11.48;71.40
69955;BME280;57279;55.912;37.490;2023-05-19T01:50:26;100073.38;;;11.42;71.22
69955;BME280;57279;55.912;37.490;2023-05-19T01:52:53;100069.03;;;11.41;70.41
69955;BME280;57279;55.912;37.490;2023-05-19T01:55:20;100070.66;;;11.42;70.60
69955;BME280;57279;55.912;37.490;2023-05-19T02:11:39;100078.97;;;11.35;69.84
69955;BME280;57279;55.912;37.490;2023-05-19T02:14:19;100072.19;;;11.33;70.61
69955;BME280;57279;55.912;37.490;2023-05-19T02:16:46;100073.00;;;11.33;70.95
69955;BME280;57279;55.912;37.490;2023-05-19T02:19:40;100070.28;;;11.33;71.37
69955;BME280;57279;55.912;37.490;2023-05-19T02:22:05;100061.19;;;11.40;71.97
69955;BME280;57279;55.912;37.490;2023-05-19T02:24:31;100065.59;;;11.46;71.58
69955;BME280;57279;55.912;37.490;2023-05-19T02:26:57;100070.50;;;11.49;72.16
69955;BME280;57279;55.912;37.490;2023-05-19T02:29:23;100069.84;;;11.42;71.86
69955;BME280;57279;55.912;37.490;2023-05-19T02:31:49;100064.28;;;11.48;73.27
69955;BME280;57279;55.912;37.490;2023-05-19T02:34:15;100066.16;;;11.48;72.84
69955;BME280;57279;55.912;37.490;2023-05-19T02:36:41;100067.41;;;11.40;72.72
69955;BME280;57279;55.912;37.490;2023-05-19T02:39:10;100065.25;;;11.42;73.47
69955;BME280;57279;55.912;37.490;2023-05-19T02:41:37;100065.78;;;11.39;73.35
69955;BME280;57279;55.912;37.490;2023-05-19T02:44:03;100071.19;;;11.39;73.66
69955;BME280;57279;55.912;37.490;2023-05-19T02:46:29;100074.88;;;11.33;73.09
69955;BME280;57279;55.912;37.490;2023-05-19T02:48:55;100078.06;;;11.30;73.92
69955;BME280;57279;55.912;37.490;2023-05-19T02:51:21;100078.97;;;11.35;73.97
69955;BME280;57279;55.912;37.490;2023-05-19T02:53:46;100079.44;;;11.32;73.73
69955;BME280;57279;55.912;37.490;2023-05-19T02:56:12;100081.59;;;11.30;73.85
69955;BME280;57279;55.912;37.490;2023-05-19T02:58:38;100078.97;;;11.35;74.51
69955;BME280;57279;55.912;37.490;2023-05-19T03:01:03;100086.50;;;11.33;74.50
69955;BME280;57279;55.912;37.490;2023-05-19T03:03:29;100080.34;;;11.38;74.77
69955;BME280;57279;55.912;37.490;2023-05-19T03:05:55;100094.94;;;11.37;74.43
69955;BME280;57279;55.912;37.490;2023-05-19T03:08:21;100089.88;;;11.41;74.52
69955;BME280;57279;55.912;37.490;2023-05-19T03:10:47;100085.44;;;11.34;74.76
69955;BME280;57279;55.912;37.490;2023-05-19T03:13:12;100099.22;;;11.33;74.59
69955;BME280;57279;55.912;37.490;2023-05-19T03:15:38;100095.66;;;11.32;75.04
69955;BME280;57279;55.912;37.490;2023-05-19T03:18:04;100091.44;;;11.20;74.14
69955;BME280;57279;55.912;37.490;2023-05-19T03:20:31;100093.81;;;11.16;75.12
69955;BME280;57279;55.912;37.490;2023-05-19T03:22:56;100099.13;;;11.28;75.67
69955;BME280;57279;55.912;37.490;2023-05-19T03:25:22;100101.59;;;11.29;75.51
69955;BME280;57279;55.912;37.490;2023-05-19T03:27:48;100107.94;;;11.40;76.26
69955;BME280;57279;55.912;37.490;2023-05-19T03:30:14;100106.16;;;11.29;75.34
69955;BME280;57279;55.912;37.490;2023-05-19T03:32:59;100114.59;;;11.32;75.38
69955;BME280;57279;55.912;37.490;2023-05-19T03:35:26;100110.03;;;11.33;75.59
69955;BME280;57279;55.912;37.490;2023-05-19T03:37:52;100111.84;;;11.27;75.34
69955;BME280;57279;55.912;37.490;2023-05-19T03:40:19;100112.06;;;11.26;75.76
69955;BME280;57279;55.912;37.490;2023-05-19T03:42:46;100112.78;;;11.21;76.04
69955;BME280;57279;55.912;37.490;2023-05-19T03:45:12;100111.66;;;11.17;76.23
69955;BME280;57279;55.912;37.490;2023-05-19T03:47:38;100117.25;;;11.27;76.52
69955;BME280;57279;55.912;37.490;2023-05-19T03:50:27;100116.16;;;11.28;76.02
69955;BME280;57279;55.912;37.490;2023-05-19T03:53:07;100116.56;;;11.37;76.42
69955;BME280;57279;55.912;37.490;2023-05-19T03:55:39;100112.72;;;11.33;76.14
69955;BME280;57279;55.912;37.490;2023-05-19T03:58:05;100120.84;;;11.33;76.07
69955;BME280;57279;55.912;37.490;2023-05-19T04:00:30;100125.25;;;11.39;76.63
69955;BME280;57279;55.912;37.490;2023-05-19T04:02:56;100121.97;;;11.37;76.30
69955;BME280;57279;55.912;37.490;2023-05-19T04:05:22;100122.88;;;11.43;76.27
69955;BME280;57279;55.912;37.490;2023-05-19T04:07:47;100130.34;;;11.52;76.77
69955;BME280;57279;55.912;37.490;2023-05-19T04:10:13;100131.22;;;11.58;76.11
69955;BME280;57279;55.912;37.490;2023-05-19T04:12:39;100129.66;;;11.62;76.27
69955;BME280;57279;55.912;37.490;2023-05-19T04:15:05;100126.38;;;11.60;76.21
69955;BME280;57279;55.912;37.490;2023-05-19T04:17:31;100126.19;;;11.67;77.32
69955;BME280;57279;55.912;37.490;2023-05-19T04:19:57;100131.81;;;11.60;76.46
69955;BME280;57279;55.912;37.490;2023-05-19T04:22:23;100131.22;;;11.58;76.83
69955;BME280;57279;55.912;37.490;2023-05-19T04:24:49;100140.56;;;11.50;76.35
69955;BME280;57279;55.912;37.490;2023-05-19T04:27:17;100136.63;;;11.58;77.07
69955;BME280;57279;55.912;37.490;2023-05-19T04:29:43;100135.88;;;11.63;76.77
69955;BME280;57279;55.912;37.490;2023-05-19T04:32:10;100138.34;;;11.64;76.91
69955;BME280;57279;55.912;37.490;2023-05-19T04:34:37;100142.50;;;11.72;76.58
69955;BME280;57279;55.912;37.490;2023-05-19T04:37:06;100144.72;;;11.75;76.49
69955;BME280;57279;55.912;37.490;2023-05-19T04:39:33;100144.72;;;11.75;76.78
69955;BME280;57279;55.912;37.490;2023-05-19T04:41:59;100138.19;;;11.71;75.72
69955;BME280;57279;55.912;37.490;2023-05-19T04:44:24;100137.88;;;11.67;75.67
69955;BME280;57279;55.912;37.490;2023-05-19T04:46:51;100144.56;;;11.65;75.68
69955;BME280;57279;55.912;37.490;2023-05-19T04:49:19;100138.53;;;11.58;75.34
69955;BME280;57279;55.912;37.490;2023-05-19T04:51:45;100142.94;;;11.64;75.67
69955;BME280;57279;55.912;37.490;2023-05-19T04:54:14;100140.91;;;11.71;76.16
69955;BME280;57279;55.912;37.490;2023-05-19T04:56:40;100129.88;;;11.78;76.24
69955;BME280;57279;55.912;37.490;2023-05-19T04:59:08;100139.47;;;11.85;76.36
69955;BME280;57279;55.912;37.490;2023-05-19T05:01:35;100128.88;;;11.84;75.80
69955;BME280;57279;55.912;37.490;2023-05-19T05:04:07;100130.63;;;11.90;75.70
69955;BME280;57279;55.912;37.490;2023-05-19T05:06:34;100131.91;;;11.87;75.53
69955;BME280;57279;55.912;37.490;2023-05-19T05:09:04;100131.44;;;11.90;75.69
69955;BME280;57279;55.912;37.490;2023-05-19T05:11:31;100138.75;;;11.90;75.59
69955;BME280;57279;55.912;37.490;2023-05-19T05:13:56;100142.28;;;11.90;75.65
69955;BME280;57279;55.912;37.490;2023-05-19T05:16:25;100148.34;;;11.81;74.78
69955;BME280;57279;55.912;37.490;2023-05-19T05:18:51;100149.38;;;11.80;75.43
69955;BME280;57279;55.912;37.490;2023-05-19T05:21:17;100148.72;;;11.72;75.20
69955;BME280;57279;55.912;37.490;2023-05-19T05:23:43;100150.16;;;11.75;75.64
69955;BME280;57279;55.912;37.490;2023-05-19T05:26:18;100154.06;;;11.84;75.30
69955;BME280;57279;55.912;37.490;2023-05-19T05:28:46;100163.31;;;11.88;75.46
69955;BME280;57279;55.912;37.490;2023-05-19T05:31:13;100160.28;;;11.85;75.30
69955;BME280;57279;55.912;37.490;2023-05-19T05:33:39;100158.31;;;11.80;75.76
69955;BME280;57279;55.912;37.490;2023-05-19T05:36:06;100159.16;;;11.81;75.67
69955;BME280;57279;55.912;37.490;2023-05-19T05:38:32;100158.91;;;11.82;75.65
69955;BME280;57279;55.912;37.490;2023-05-19T05:40:58;100161.03;;;11.80;75.68
69955;BME280;57279;55.912;37.490;2023-05-19T05:43:26;100171.81;;;11.92;75.76
69955;BME280;57279;55.912;37.490;2023-05-19T05:45:56;100160.47;;;11.95;75.75
69955;BME280;57279;55.912;37.490;2023-05-19T05:48:23;100162.69;;;11.98;75.95
69955;BME280;57279;55.912;37.490;2023-05-19T05:50:49;100159.22;;;12.03;75.44
69955;BME280;57279;55.912;37.490;2023-05-19T05:53:19;100165.19;;;12.05;75.50
69955;BME280;57279;55.912;37.490;2023-05-19T05:55:48;100165.28;;;12.10;76.16
69955;BME280;57279;55.912;37.490;2023-05-19T05:58:15;100165.91;;;12.17;75.58
69955;BME280;57279;55.912;37.490;2023-05-19T06:00:42;100166.66;;;12.12;75.25
69955;BME280;57279;55.912;37.490;2023-05-19T06:03:08;100172.50;;;12.04;74.64
69955;BME280;57279;55.912;37.490;2023-05-19T06:05:36;100174.19;;;12.10;75.12
69955;BME280;57279;55.912;37.490;2023-05-19T06:08:02;100175.94;;;12.17;75.72
69955;BME280;57279;55.912;37.490;2023-05-19T06:10:28;100176.22;;;12.20;75.07
69955;BME280;57279;55.912;37.490;2023-05-19T06:12:54;100175.72;;;12.23;74.74
69955;BME280;57279;55.912;37.490;2023-05-19T06:15:23;100174.03;;;12.39;74.68
69955;BME280;57279;55.912;37.490;2023-05-19T06:18:06;100176.09;;;12.54;73.62
69955;BME280;57279;55.912;37.490;2023-05-19T06:20:31;100188.16;;;12.63;72.83
69955;BME280;57279;55.912;37.490;2023-05-19T06:22:58;100176.19;;;12.59;72.23
69955;BME280;57279;55.912;37.490;2023-05-19T06:25:25;100177.81;;;12.60;72.75
69955;BME280;57279;55.912;37.490;2023-05-19T06:27:51;100165.72;;;12.68;72.71
69955;BME280;57279;55.912;37.490;2023-05-19T06:30:18;100170.78;;;12.86;72.43
69955;BME280;57279;55.912;37.490;2023-05-19T06:32:53;100177.63;;;12.94;70.80
69955;BME280;57279;55.912;37.490;2023-05-19T06:35:19;100179.84;;;12.97;70.18
69955;BME280;57279;55.912;37.490;2023-05-19T06:37:44;100177.00;;;12.87;70.40
69955;BME280;57279;55.912;37.490;2023-05-19T06:40:11;100186.69;;;12.78;70.91
69955;BME280;57279;55.912;37.490;2023-05-19T06:42:38;100167.09;;;12.70;69.04
69955;BME280;57279;55.912;37.490;2023-05-19T06:45:13;100180.50;;;12.82;68.75
69955;BME280;57279;55.912;37.490;2023-05-19T06:47:38;100181.22;;;13.00;68.26
69955;BME280;57279;55.912;37.490;2023-05-19T06:50:08;100189.81;;;13.19;67.71
69955;BME280;57279;55.912;37.490;2023-05-19T06:52:36;100192.38;;;13.30;67.02
69955;BME280;57279;55.912;37.490;2023-05-19T06:55:03;100185.94;;;13.37;66.20
69955;BME280;57279;55.912;37.490;2023-05-19T06:57:31;100185.22;;;13.46;66.56
69955;BME280;57279;55.912;37.490;2023-05-19T06:59:57;100193.09;;;13.48;65.24
69955;BME280;57279;55.912;37.490;2023-05-19T07:02:24;100190.41;;;13.53;63.43
69955;BME280;57279;55.912;37.490;2023-05-19T07:04:50;100197.56;;;13.64;63.55
69955;BME280;57279;55.912;37.490;2023-05-19T07:07:19;100193.69;;;13.55;62.86
69955;BME280;57279;55.912;37.490;2023-05-19T07:09:46;100196.94;;;13.57;62.15
69955;BME280;57279;55.912;37.490;2023-05-19T07:12:12;100200.81;;;13.61;61.03
69955;BME280;57279;55.912;37.490;2023-05-19T07:14:38;100196.78;;;13.69;60.09
69955;BME280;57279;55.912;37.490;2023-05-19T07:17:04;100202.03;;;13.81;59.25
69955;BME280;57279;55.912;37.490;2023-05-19T07:19:33;100202.88;;;13.86;58.75
69955;BME280;57279;55.912;37.490;2023-05-19T07:21:58;100207.47;;;13.81;56.52
69955;BME280;57279;55.912;37.490;2023-05-19T07:24:24;100203.94;;;13.80;55.12
69955;BME280;57279;55.912;37.490;2023-05-19T07:26:51;100205.00;;;13.79;55.33
69955;BME280;57279;55.912;37.490;2023-05-19T07:29:18;100208.50;;;13.75;53.78
69955;BME280;57279;55.912;37.490;2023-05-19T07:31:43;100207.72;;;13.79;52.74
69955;BME280;57279;55.912;37.490;2023-05-19T07:34:09;100213.13;;;13.79;51.25
69955;BME280;57279;55.912;37.490;2023-05-19T07:36:35;100209.63;;;13.84;51.47
69955;BME280;57279;55.912;37.490;2023-05-19T07:39:01;100211.84;;;13.87;49.82
69955;BME280;57279;55.912;37.490;2023-05-19T07:41:27;100216.22;;;13.93;50.23
69955;BME280;57279;55.912;37.490;2023-05-19T07:43:53;100221.78;;;14.14;49.35
69955;BME280;57279;55.912;37.490;2023-05-19T07:46:19;100218.72;;;14.00;46.25
69955;BME280;57279;55.912;37.490;2023-05-19T07:48:44;100209.41;;;13.91;45.64
69955;BME280;57279;55.912;37.490;2023-05-19T07:51:11;100211.19;;;14.12;46.66
69955;BME280;57279;55.912;37.490;2023-05-19T07:53:37;100207.75;;;14.27;45.35
69955;BME280;57279;55.912;37.490;2023-05-19T07:56:03;100214.28;;;14.26;45.48
69955;BME280;57279;55.912;37.490;2023-05-19T07:58:28;100213.72;;;14.29;44.92
69955;BME280;57279;55.912;37.490;2023-05-19T08:00:58;100211.88;;;14.40;45.80
69955;BME280;57279;55.912;37.490;2023-05-19T08:03:25;100213.13;;;14.22;45.77
69955;BME280;57279;55.912;37.490;2023-05-19T08:05:51;100204.72;;;14.23;45.67
69955;BME280;57279;55.912;37.490;2023-05-19T08:08:17;100208.31;;;13.92;46.79
69955;BME280;57279;55.912;37.490;2023-05-19T08:10:44;100208.63;;;13.95;47.63
69955;BME280;57279;55.912;37.490;2023-05-19T08:13:10;100208.88;;;13.88;47.55
69955;BME280;57279;55.912;37.490;2023-05-19T08:15:36;100206.72;;;13.91;47.63
69955;BME280;57279;55.912;37.490;2023-05-19T08:18:02;100209.97;;;13.93;47.79
69955;BME280;57279;55.912;37.490;2023-05-19T08:20:29;100206.66;;;13.85;47.43
69955;BME280;57279;55.912;37.490;2023-05-19T08:22:55;100202.63;;;13.93;46.89
69955;BME280;57279;55.912;37.490;2023-05-19T08:25:21;100207.63;;;14.06;47.55
69955;BME280;57279;55.912;37.490;2023-05-19T08:27:46;100216.59;;;14.07;47.01
69955;BME280;57279;55.912;37.490;2023-05-19T08:30:14;100208.72;;;14.11;46.24
69955;BME280;57279;55.912;37.490;2023-05-19T08:32:40;100213.34;;;14.10;46.95
69955;BME280;57279;55.912;37.490;2023-05-19T08:35:07;100203.31;;;14.16;45.87
69955;BME280;57279;55.912;37.490;2023-05-19T08:37:32;100215.00;;;14.11;45.52
69955;BME280;57279;55.912;37.490;2023-05-19T08:40:03;100214.72;;;14.13;46.28
69955;BME280;57279;55.912;37.490;2023-05-19T08:42:31;100202.53;;;14.15;46.09
69955;BME280;57279;55.912;37.490;2023-05-19T08:45:01;100211.78;;;14.19;46.42
69955;BME280;57279;55.912;37.490;2023-05-19T08:47:27;100209.88;;;14.20;46.35
69955;BME280;57279;55.912;37.490;2023-05-19T08:50:03;100210.06;;;14.08;46.43
69955;BME280;57279;55.912;37.490;2023-05-19T08:57:51;100189.44;;;14.07;45.58
69955;BME280;57279;55.912;37.490;2023-05-19T09:00:18;100188.44;;;14.23;45.82
69955;BME280;57279;55.912;37.490;2023-05-19T09:02:48;100191.47;;;14.37;46.10
69955;BME280;57279;55.912;37.490;2023-05-19T09:05:16;100185.84;;;14.54;46.61
69955;BME280;57279;55.912;37.490;2023-05-19T09:07:43;100178.84;;;14.63;45.23
69955;BME280;57279;55.912;37.490;2023-05-19T09:10:09;100184.59;;;14.72;45.65
69955;BME280;57279;55.912;37.490;2023-05-19T09:12:45;100177.78;;;14.70;45.27
69955;BME280;57279;55.912;37.490;2023-05-19T09:15:16;100188.13;;;14.73;44.36
69955;BME280;57279;55.912;37.490;2023-05-19T09:17:46;100177.28;;;14.83;44.99
69955;BME280;57279;55.912;37.490;2023-05-19T09:20:15;100165.34;;;14.89;44.13
69955;BME280;57279;55.912;37.490;2023-05-19T09:22:45;100174.03;;;14.86;44.90
69955;BME280;57279;55.912;37.490;2023-05-19T09:25:22;100187.94;;;14.95;44.03
69955;BME280;57279;55.912;37.490;2023-05-19T09:27:48;100172.16;;;14.97;43.16
69955;BME280;57279;55.912;37.490;2023-05-19T09:30:16;100170.28;;;15.13;43.52
69955;BME280;57279;55.912;37.490;2023-05-19T09:32:42;100171.38;;;15.22;42.96
69955;BME280;57279;55.912;37.490;2023-05-19T09:35:11;100171.09;;;15.34;42.19
69955;BME280;57279;55.912;37.490;2023-05-19T09:37:40;100161.03;;;15.44;42.22
69955;BME280;57279;55.912;37.490;2023-05-19T09:40:08;100166.47;;;15.34;42.34
69955;BME280;57279;55.912;37.490;2023-05-19T09:42:38;100163.75;;;15.50;42.64
69955;BME280;57279;55.912;37.490;2023-05-19T09:45:05;100174.66;;;15.65;41.88
69955;BME280;57279;55.912;37.490;2023-05-19T09:47:39;100167.28;;;15.81;40.73
69955;BME280;57279;55.912;37.490;2023-05-19T09:50:10;100158.28;;;15.91;40.59
69955;BME280;57279;55.912;37.490;2023-05-19T09:52:43;100162.31;;;16.09;41.15
69955;BME280;57279;55.912;37.490;2023-05-19T09:55:11;100165.84;;;16.19;40.23
69955;BME280;57279;55.912;37.490;2023-05-19T09:57:38;100159.53;;;16.34;39.77
69955;BME280;57279;55.912;37.490;2023-05-19T10:00:08;100158.72;;;16.34;39.53
69955;BME280;57279;55.912;37.490;2023-05-19T10:02:45;100163.31;;;16.33;40.05
69955;BME280;57279;55.912;37.490;2023-05-19T10:05:16;100160.91;;;16.27;39.19
69955;BME280;57279;55.912;37.490;2023-05-19T10:07:45;100158.13;;;16.42;39.06
69955;BME280;57279;55.912;37.490;2023-05-19T10:10:14;100156.13;;;16.63;39.59
69955;BME280;57279;55.912;37.490;2023-05-19T10:12:40;100153.88;;;16.75;39.06
69955;BME280;57279;55.912;37.490;2023-05-19T10:15:08;100159.03;;;16.87;38.88
69955;BME280;57279;55.912;37.490;2023-05-19T10:17:40;100154.41;;;16.83;38.24
69955;BME280;57279;55.912;37.490;2023-05-19T10:20:10;100147.47;;;17.00;38.56
69955;BME280;57279;55.912;37.490;2023-05-19T10:22:37;100148.25;;;17.06;38.17
69955;BME280;57279;55.912;37.490;2023-05-19T10:25:06;100154.97;;;17.19;38.23
69955;BME280;57279;55.912;37.490;2023-05-19T10:27:34;100153.91;;;17.15;37.83
69955;BME280;57279;55.912;37.490;2023-05-19T10:30:06;100154.38;;;17.27;37.61
69955;BME280;57279;55.912;37.490;2023-05-19T10:32:34;100156.22;;;17.37;37.42
69955;BME280;57279;55.912;37.490;2023-05-19T10:43:48;100156.47;;;17.01;37.45
69955;BME280;57279;55.912;37.490;2023-05-19T10:46:22;100152.50;;;17.23;37.63
69955;BME280;57279;55.912;37.490;2023-05-19T10:48:53;100160.66;;;17.28;37.20
69955;BME280;57279;55.912;37.490;2023-05-19T10:51:32;100163.47;;;17.17;37.44
69955;BME280;57279;55.912;37.490;2023-05-19T10:54:01;100163.75;;;17.16;37.06
69955;BME280;57279;55.912;37.490;2023-05-19T10:56:31;100162.59;;;17.22;37.16
69955;BME280;57279;55.912;37.490;2023-05-19T10:58:59;100162.03;;;17.25;36.67
69955;BME280;57279;55.912;37.490;2023-05-19T11:01:31;100164.94;;;17.39;36.15
69955;BME280;57279;55.912;37.490;2023-05-19T11:04:03;100161.66;;;17.37;35.65
69955;BME280;57279;55.912;37.490;2023-05-19T11:06:31;100163.28;;;17.38;35.59
69955;BME280;57279;55.912;37.490;2023-05-19T11:11:46;100166.19;;;17.52;34.99
69955;BME280;57279;55.912;37.490;2023-05-19T11:14:13;100169.19;;;17.50;35.15
69955;BME280;57279;55.912;37.490;2023-05-19T11:16:40;100163.47;;;17.52;34.28
69955;BME280;57279;55.912;37.490;2023-05-19T11:19:24;100160.63;;;17.62;33.88
69955;BME280;57279;55.912;37.490;2023-05-19T11:21:51;100168.53;;;17.64;33.89
69955;BME280;57279;55.912;37.490;2023-05-19T11:27:26;100166.97;;;17.57;32.54
69955;BME280;57279;55.912;37.490;2023-05-19T11:29:59;100169.75;;;17.47;32.56
69955;BME280;57279;55.912;37.490;2023-05-19T11:32:30;100166.34;;;17.31;32.60
69955;BME280;57279;55.912;37.490;2023-05-19T11:35:01;100153.47;;;17.37;32.56
69955;BME280;57279;55.912;37.490;2023-05-19T11:37:31;100178.84;;;17.37;32.11
69955;BME280;57279;55.912;37.490;2023-05-19T11:40:00;100181.19;;;17.54;32.85
69955;BME280;57279;55.912;37.490;2023-05-19T11:42:26;100165.13;;;17.77;32.28
69955;BME280;57279;55.912;37.490;2023-05-19T11:44:54;100165.66;;;17.79;31.68
69955;BME280;57279;55.912;37.490;2023-05-19T11:47:20;100164.66;;;17.99;32.06
69955;BME280;57279;55.912;37.490;2023-05-19T11:49:47;100170.03;;;18.09;32.24
69955;BME280;57279;55.912;37.490;2023-05-19T11:52:13;100161.50;;;18.35;32.55
69955;BME280;57279;55.912;37.490;2023-05-19T11:54:39;100170.19;;;18.18;32.46
69955;BME280;57279;55.912;37.490;2023-05-19T11:57:09;100177.91;;;18.35;32.65
69955;BME280;57279;55.912;37.490;2023-05-19T11:59:36;100171.50;;;18.45;32.56
69955;BME280;57279;55.912;37.490;2023-05-19T12:04:41;100163.34;;;18.64;32.25
69955;BME280;57279;55.912;37.490;2023-05-19T12:07:06;100171.47;;;18.69;32.49
69955;BME280;57279;55.912;37.490;2023-05-19T12:09:32;100168.06;;;18.39;32.53
69955;BME280;57279;55.912;37.490;2023-05-19T12:11:58;100169.66;;;18.40;32.61
69955;BME280;57279;55.912;37.490;2023-05-19T12:14:25;100168.56;;;18.41;32.33
69955;BME280;57279;55.912;37.490;2023-05-19T12:16:51;100179.38;;;18.51;32.03
69955;BME280;57279;55.912;37.490;2023-05-19T12:19:17;100171.50;;;18.45;31.78
69955;BME280;57279;55.912;37.490;2023-05-19T12:21:43;100181.06;;;18.47;31.32
69955;BME280;57279;55.912;37.490;2023-05-19T12:24:09;100175.72;;;18.37;30.85
69955;BME280;57279;55.912;37.490;2023-05-19T12:26:35;100173.28;;;18.35;31.37
69955;BME280;57279;55.912;37.490;2023-05-19T12:29:04;100177.41;;;18.33;31.32
69955;BME280;57279;55.912;37.490;2023-05-19T12:31:32;100175.19;;;18.35;31.52
69955;BME280;57279;55.912;37.490;2023-05-19T12:33:58;100174.84;;;18.42;31.24
69955;BME280;57279;55.912;37.490;2023-05-19T12:36:24;100179.84;;;18.59;31.24
69955;BME280;57279;55.912;37.490;2023-05-19T12:38:54;100170.50;;;18.60;31.27
69955;BME280;57279;55.912;37.490;2023-05-19T12:41:20;100184.41;;;18.63;30.80
69955;BME280;57279;55.912;37.490;2023-05-19T12:43:47;100187.56;;;18.51;30.78
69955;BME280;57279;55.912;37.490;2023-05-19T12:46:13;100176.81;;;18.60;30.84
69955;BME280;57279;55.912;37.490;2023-05-19T12:48:45;100172.16;;;18.61;30.77
69955;BME280;57279;55.912;37.490;2023-05-19T12:51:16;100174.72;;;18.52;31.13
69955;BME280;57279;55.912;37.490;2023-05-19T12:53:45;100174.97;;;18.74;30.86
69955;BME280;57279;55.912;37.490;2023-05-19T12:56:14;100167.91;;;18.92;31.04
69955;BME280;57279;55.912;37.490;2023-05-19T12:58:41;100175.22;;;18.97;30.93
69955;BME280;57279;55.912;37.490;2023-05-19T13:01:16;100174.25;;;19.07;31.36
69955;BME280;57279;55.912;37.490;2023-05-19T13:03:42;100173.81;;;19.19;30.94
69955;BME280;57279;55.912;37.490;2023-05-19T13:06:08;100176.69;;;19.27;30.56
69955;BME280;57279;55.912;37.490;2023-05-19T13:08:38;100180.16;;;19.33;30.63
69955;BME280;57279;55.912;37.490;2023-05-19T13:11:04;100169.03;;;19.43;30.95
69955;BME280;57279;55.912;37.490;2023-05-19T13:13:31;100174.63;;;19.38;30.60
69955;BME280;57279;55.912;37.490;2023-05-19T13:15:56;100180.31;;;19.23;30.13
69955;BME280;57279;55.912;37.490;2023-05-19T13:18:22;100182.47;;;19.07;30.00
69955;BME280;57279;55.912;37.490;2023-05-19T13:20:49;100175.22;;;18.97;29.93
69955;BME280;57279;55.912;37.490;2023-05-19T13:23:16;100178.19;;;19.20;30.26
69955;BME280;57279;55.912;37.490;2023-05-19T13:25:42;100175.50;;;19.33;30.25
69955;BME280;57279;55.912;37.490;2023-05-19T13:28:08;100181.66;;;19.25;29.97